• Join FlightAware (Why Join?)
  • Login
  • US Flag 
03:16AM EDT


 

Airport Tracker/Info


-or-


 

Live Flight TrackerFlight Track Log ✈ RPA4886 ✈ 14-May-2013 ✈ KALB - KIAD

Flight Track Log - Related Links

Times and Time Zones

All times are in EDT time to prevent confusion due to time zone crossing. See the RPA4886 flight status page for this flight to view local times or setup timezone preferences in your user account.

Time Position Orientation Groundspeed Altitude Reporting Facility
EDT Latitude Longitude Course Direction KTS MPH feet Rate Location/Type
07:31PM 42.7881 -73.8094 353° North 177 204 2,200  Level Boston Center
07:32PM 42.8378 -73.8417 335° Northwest 219 252 4,500 2,400 Climbing Boston Center
07:33PM 42.7334 -74.1740 270° West  Level FlightAware Approximate
07:33PM 42.8581 -73.8903 300° West 224 258 6,500  Level Boston Center
07:34PM 42.7333 -74.2986 270° West  Level FlightAware Approximate
07:34PM 42.8400 -73.9947 257° West 208 239 9,600  Level Boston Center
07:35PM 42.6697 -74.3862 220° Southwest  Level FlightAware Approximate
07:35PM 42.8072 -74.1014 247° West 242 278 10,600  Level Boston Center
07:36PM 42.5992 -74.4656 220° Southwest  Level FlightAware Approximate
07:36PM 42.7722 -74.2136 247° West 290 334 12,600  Level Boston Center
07:37PM 42.7286 -74.3253 242° Southwest 303 349 14,700 1,800 Climbing Boston Center
07:38PM 42.6753 -74.4000 226° Southwest 303 349 16,300 1,620 Climbing Boston Center
07:39PM 42.6111 -74.4939 227° Southwest 308 354 18,000 1,500 Climbing Boston Center
07:40PM 42.5678 -74.5769 235° Southwest 308 354 19,300 1,440 Climbing Boston Center
07:41PM 42.5203 -74.6683 235° Southwest 308 354 20,900 1,260 Climbing Boston Center
07:42PM 42.4725 -74.7594 235° Southwest 308 354 21,900 540 Climbing Boston Center
07:43PM 42.4164 -74.8586 233° Southwest 320 368 22,000  Climbing Boston Center
07:44PM 42.3597 -74.9661 235° Southwest 338 389 22,000 -60 Level Boston Center
07:45PM 42.2881 -75.0953 233° Southwest 356 410 21,900 -780 Descending Boston Center
07:47PM 42.1944 -75.2633 233° Southwest 355 409 20,100 -780 Descending New York Center
07:48PM 42.1383 -75.3686 234° Southwest 350 403 20,000 -60 Descending New York Center
07:49PM 42.0778 -75.4761 233° Southwest 355 409 20,000  Level New York Center
07:50PM 42.0153 -75.5861 233° Southwest 355 409 20,000  Level New York Center
07:51PM 41.9525 -75.6958 232° Southwest 366 421 20,000  Level New York Center
07:52PM 41.8939 -75.8031 234° Southwest 371 427 20,000 -480 Level New York Center
07:53PM 41.8331 -75.9097 233° Southwest 371 427 19,100 -1,080 Descending New York Center
07:54PM 41.7789 -76.0056 233° Southwest 371 427 17,900 -1,080 Descending New York Center
07:55PM 41.7133 -76.1200 233° Southwest 366 421 17,000 -480 Descending New York Center
07:56PM 41.6544 -76.2236 233° Southwest 361 415 17,000  Level New York Center
07:57PM 41.5956 -76.3269 233° Southwest 356 410 17,000  Level New York Center
07:58PM 41.5433 -76.4194 233° Southwest 350 403 17,000  Level New York Center
07:59PM 41.4822 -76.5225 232° Southwest 350 403 17,000  Level New York Center
08:00PM 41.4183 -76.6358 233° Southwest 350 403 17,000  Level New York Center
08:01PM 41.3658 -76.7253 232° Southwest 350 403 17,000  Level New York Center
08:02PM 41.2856 -76.7900 211° Southwest 338 389 17,000  Level New York Center
08:03PM 41.1803 -76.8083 187° South 352 405 17,000  Level New York Center
08:04PM 41.0753 -76.8264 187° South 364 419 17,000  Level New York Center
08:05PM 40.9719 -76.8503 190° South 377 434 17,000  Level New York Center
08:06PM 40.8583 -76.8703 188° South 377 434 17,000  Level New York Center
08:07PM 40.7636 -76.8919 190° South 377 434 17,000  Level New York Center
08:08PM 40.6533 -76.9286 194° South 377 434 17,000  Level New York Center
08:09PM 40.5600 -76.9586 194° South 383 441 17,000  Level New York Center
08:10PM 40.4478 -76.9922 193° South 383 441 17,000 -60 Level New York Center
08:11PM 40.3544 -77.0192 192° South 383 441 16,900 -780 Descending New York Center
08:12PM 40.2422 -77.0553 194° South 383 441 15,500 -1,380 Descending New York Center
08:14PM 40.0167 -77.1167 192° South 342 394 12,400 -1,320 Descending Potomac TRACON
08:15PM 39.9333 -77.1500 197° South 314 361 11,100 -1,320 Descending Potomac TRACON
08:16PM 39.8500 -77.1833 197° South 305 351 9,800 -1,380 Descending Potomac TRACON
08:17PM 39.7667 -77.2000 189° South 288 331 8,400 -960 Descending Potomac TRACON
08:18PM 39.7000 -77.2167 191° South 283 326 8,000 -300 Descending Potomac TRACON
08:19PM 39.6500 -77.3000 232° Southwest 264 304 7,800 -780 Descending Potomac TRACON
08:20PM 39.5833 -77.3167 191° South 269 310 6,500 -900 Descending Potomac TRACON
08:21PM 39.5000 -77.3333 189° South 259 298 6,000 -600 Descending Potomac TRACON
08:22PM 39.4333 -77.3500 191° South 248 285 5,300 -840 Descending Potomac TRACON
08:23PM 39.3667 -77.3833 201° Southwest 243 280 4,400 -660 Descending Potomac TRACON
08:24PM 39.3000 -77.4000 191° South 246 283 4,000 -300 Descending Potomac TRACON
08:25PM 39.2333 -77.4333 201° Southwest 240 276 3,900 -60 Descending Potomac TRACON
08:26PM 39.1667 -77.4333 180° South 231 266 3,900 -300 Level Potomac TRACON
08:27PM 39.1167 -77.4333 180° South 219 252 3,400 -540 Descending Potomac TRACON